Bellingham, WA

9:19 PM PST on December 10, 2016 (GMT -0800)
Bellingham Sunnyland | | Change Station
Active Advisory: High Wind Watch Active Notice: Public Information Statement

Elev 59 ft 48.75 °N, 122.47 °W | Updated 6 seconds ago

Overcast
Overcast
41.2 °F
Feels Like 38 °F
N
4.9
Wind Variable Wind from SSW
Gusts 10.0 mph

Today
High -- | Low -- °F
--% Chance of Precip.
Yesterday
High -- | Low -- °F
Precip. -- in
Pressure 29.80 in
Visibility 10.0 miles
Clouds Overcast 1200 ft
Windchill 38 °F
Dew Point 39 °F
Humidity 91%
Rainfall 0.29 in
Snow Depth Not available.
7:52 AM 4:13 PM
Waxing Gibbous, 89% visible
SPECI KBLI 110500Z 15010G14KT 10SM -RA OVC012 05/04 A2980 RMK AO2 P0000 T00500039 $
Pressure 29.80 in
Visibility 10.0 miles
Clouds Overcast 1200 ft
Windchill 38 °F
Dew Point 39 °F
Humidity 91%
Rainfall 0.29 in
Snow Depth Not available.
7:52 AM 4:13 PM
Waxing Gibbous, 89% visible
SPECI KBLI 110500Z 15010G14KT 10SM -RA OVC012 05/04 A2980 RMK AO2 P0000 T00500039 $

10-Day Weather Forecast

Almanac

Astronomy

Dec. 10, 2016 Rise Set
Actual Time
Civil Twilight
Nautical Twilight
Astronomical Twilight
Moon
Length of Visible Light
Length of Day
Tomorrow will be .
, % of the Moon is Illuminated

Today's Extremes

State Highs State Lows

Community

WunderPhotos

Upload Photos

1,956,705 photos uploaded!

WunderBlog® & News

Nearby

Air Quality

  Air Quality AQ Index Pollutant
Not available.

Snow Depth

Station Depth Elevation

Earthquake Activity

City Distance Mag. Time & Date
Minimum magnitude displayed is 2.5.

Coastal Water Temperatures

Place Temperature

Stations

Nearby Weather Stations

Station Location Temp. Windchill Dew Point Humidity Wind Precip. Elev Updated Type
                   

Watches & Warnings

High Wind Watch
Issued: 3:29 PM PST Dec. 10, 2016 – National Weather Service

... High wind watch in effect from Sunday afternoon through Monday
afternoon...

The National Weather Service in Seattle has issued a high wind
watch... which is in effect from Sunday afternoon through Monday
afternoon.

* Location... Bellingham... Ferndale... and the San Juan Islands.
Strongest winds near the coastline of western Whatcom County.

* Timing... Sunday afternoon through Monday afternoon. Strongest
winds on Sunday night.

* Winds... northeast Fraser outflow winds are expected to develop.
This will bring northeast winds of 30 to 35 mph with gusts of 50
mph or greater.

* Impacts... winds this strong can cause power outages and produce
minor damage. With air temperatures in the upper 20s... this will
produce wind chill values of 10 to 15 degrees.

Precautionary/preparedness actions...

A high wind watch means there is the potential for a hazardous high
wind event. Sustained winds of at least 40 mph... or gusts of 58 mph
or stronger may occur. Continue to monitor the latest forecasts.